Servet Ana — TCMF7 — position and weather

sailwx.info

Track history (hours):
 
Tides and Currents Weather Stations Pressure Air Temp Water Temp Dewpoint Dewpoint Depression Visibility Wind Speed Wind Dir Waves Ship Positions

Servet Ana

Last reported at 2015-May-28 19:33 UTC. Time now 2015-May-30 12:30 UTC.
Position N 35°50' E 013°15'.

; draft 8.9 m.

Type: Cargo ship. MMSI: 271042643.

Date/timePositionNaut miles runAvg speedWind from/ knotsBaromVisibWave heightAir tempDewpointWater temp
2015-May-28 19:33N 35°50' E 013°15'3113.6
2015-May-28 17:17N 36°14' E 012°51'1013.9
2015-May-28 16:32N 36°22' E 012°42'55412.9
2015-May-26 21:33N 36°49' E 001°13'1414.0
2015-May-26 20:33N 36°46' E 000°56'1414.1
2015-May-26 19:33N 36°43' E 000°39'1414.4
2015-May-26 18:33N 36°41' E 000°21'1514.5
2015-May-26 17:33N 36°38' E 000°03'1514.4
2015-May-26 16:31N 36°35' W 000°15'1414.2
2015-May-26 15:33N 36°32' W 000°32'1414.1
2015-May-26 14:33N 36°30' W 000°49'3314.0
2015-May-26 12:11N 36°24' W 001°29'7613.5
2015-May-26 06:31N 36°12' W 003°03'10113.7
2015-May-25 23:09N 35°60' W 005°07'914.3
2015-May-25 22:34N 35°59' W 005°18'1714.3
2015-May-25 21:24N 35°55' W 005°38'14813.2
2015-May-25 10:12N 36°00' W 008°40'913.2
2015-May-25 09:32N 36°01' W 008°51'1313.1
2015-May-25 08:34N 36°01' W 009°07'2612.9
2015-May-25 06:30N 36°02' W 009°40'1313.2
2015-May-25 05:33N 36°02' W 009°55'1413.1
2015-May-25 04:29N 36°03' W 010°12'1313.4
2015-May-25 03:32N 36°04' W 010°28'1313.1
2015-May-25 02:33N 36°05' W 010°44'1412.8
2015-May-25 01:29N 36°05' W 011°01'2712.9
2015-May-24 23:23N 36°07' W 011°34'1112.8
2015-May-24 22:32N 36°07' W 011°48'57511.9
2015-May-22 22:23N 36°36' W 023°40'1312.3
2015-May-22 21:20N 36°36' W 023°56'1012.3
2015-May-22 20:33N 36°36' W 024°08'1212.5
2015-May-22 19:33N 36°37' W 024°24'1312.6
2015-May-22 18:33N 36°38' W 024°40'1313.1
2015-May-22 17:33N 36°38' W 024°56'1313.2
2015-May-22 16:33N 36°38' W 025°12'1313.4
2015-May-22 15:34N 36°35' W 025°29'1313.4
2015-May-22 14:33N 36°32' W 025°45'1313.2
2015-May-22 13:33N 36°29' W 026°01'  
Track history (hours):
 
Tides and Currents Weather Stations Pressure Air Temp Water Temp Dewpoint Dewpoint Depression Visibility Wind Speed Wind Dir Waves Ship Positions

Servet Ana

Last reported at 2015-May-28 19:33 UTC. Time now 2015-May-30 12:30 UTC.
Position N 35°50' E 013°15'.

; draft 8.9 m.

Type: Cargo ship. MMSI: 271042643.

Date/timePositionNaut miles runAvg speedWind from/ knotsBaromVisibWave heightAir tempDewpointWater temp
2015-May-28 19:33N 35°50' E 013°15'3113.6
2015-May-28 17:17N 36°14' E 012°51'1013.9
2015-May-28 16:32N 36°22' E 012°42'55412.9
2015-May-26 21:33N 36°49' E 001°13'1414.0
2015-May-26 20:33N 36°46' E 000°56'1414.1
2015-May-26 19:33N 36°43' E 000°39'1414.4
2015-May-26 18:33N 36°41' E 000°21'1514.5
2015-May-26 17:33N 36°38' E 000°03'1514.4
2015-May-26 16:31N 36°35' W 000°15'1414.2
2015-May-26 15:33N 36°32' W 000°32'1414.1
2015-May-26 14:33N 36°30' W 000°49'3314.0
2015-May-26 12:11N 36°24' W 001°29'7613.5
2015-May-26 06:31N 36°12' W 003°03'10113.7
2015-May-25 23:09N 35°60' W 005°07'914.3
2015-May-25 22:34N 35°59' W 005°18'1714.3
2015-May-25 21:24N 35°55' W 005°38'14813.2
2015-May-25 10:12N 36°00' W 008°40'913.2
2015-May-25 09:32N 36°01' W 008°51'1313.1
2015-May-25 08:34N 36°01' W 009°07'2612.9
2015-May-25 06:30N 36°02' W 009°40'1313.2
2015-May-25 05:33N 36°02' W 009°55'1413.1
2015-May-25 04:29N 36°03' W 010°12'1313.4
2015-May-25 03:32N 36°04' W 010°28'1313.1
2015-May-25 02:33N 36°05' W 010°44'1412.8
2015-May-25 01:29N 36°05' W 011°01'2712.9
2015-May-24 23:23N 36°07' W 011°34'1112.8
2015-May-24 22:32N 36°07' W 011°48'57511.9
2015-May-22 22:23N 36°36' W 023°40'1312.3
2015-May-22 21:20N 36°36' W 023°56'1012.3
2015-May-22 20:33N 36°36' W 024°08'1212.5
2015-May-22 19:33N 36°37' W 024°24'1312.6
2015-May-22 18:33N 36°38' W 024°40'1313.1
2015-May-22 17:33N 36°38' W 024°56'1313.2
2015-May-22 16:33N 36°38' W 025°12'1313.4
2015-May-22 15:34N 36°35' W 025°29'1313.4
2015-May-22 14:33N 36°32' W 025°45'1313.2
2015-May-22 13:33N 36°29' W 026°01'  

Dump ship's entire track history